sensor_id;sensor_type;location;lat;lon;timestamp;temperature;humidity
62916;DHT22;49010;51.230;-2.306;2022-11-20T00:01:59;7.90;99.90
62916;DHT22;49010;51.230;-2.306;2022-11-20T00:05:41;7.90;99.90
62916;DHT22;49010;51.230;-2.306;2022-11-20T00:09:23;8.00;99.90
62916;DHT22;49010;51.230;-2.306;2022-11-20T00:13:05;8.00;99.90
62916;DHT22;49010;51.230;-2.306;2022-11-20T00:16:47;8.00;99.90
62916;DHT22;49010;51.230;-2.306;2022-11-20T00:20:29;8.10;99.90
62916;DHT22;49010;51.230;-2.306;2022-11-20T00:24:11;8.00;99.90
62916;DHT22;49010;51.230;-2.306;2022-11-20T00:27:53;8.10;99.90
62916;DHT22;49010;51.230;-2.306;2022-11-20T00:31:35;8.10;99.90
62916;DHT22;49010;51.230;-2.306;2022-11-20T00:35:17;8.10;99.90
62916;DHT22;49010;51.230;-2.306;2022-11-20T00:38:59;8.10;99.90
62916;DHT22;49010;51.230;-2.306;2022-11-20T00:42:41;8.10;99.90
62916;DHT22;49010;51.230;-2.306;2022-11-20T00:46:25;8.10;99.90
62916;DHT22;49010;51.230;-2.306;2022-11-20T00:50:07;8.10;99.90
62916;DHT22;49010;51.230;-2.306;2022-11-20T00:53:49;8.20;99.90
62916;DHT22;49010;51.230;-2.306;2022-11-20T00:57:31;8.10;99.90
62916;DHT22;49010;51.230;-2.306;2022-11-20T01:01:22;8.20;99.90
62916;DHT22;49010;51.230;-2.306;2022-11-20T01:05:06;8.20;99.90
62916;DHT22;49010;51.230;-2.306;2022-11-20T01:08:49;8.20;99.90
62916;DHT22;49010;51.230;-2.306;2022-11-20T01:12:31;8.20;99.90
62916;DHT22;49010;51.230;-2.306;2022-11-20T01:16:16;8.30;99.90
62916;DHT22;49010;51.230;-2.306;2022-11-20T01:19:58;8.20;99.90
62916;DHT22;49010;51.230;-2.306;2022-11-20T01:23:41;8.30;99.90
62916;DHT22;49010;51.230;-2.306;2022-11-20T01:27:24;8.30;99.90
62916;DHT22;49010;51.230;-2.306;2022-11-20T01:31:15;8.30;99.90
62916;DHT22;49010;51.230;-2.306;2022-11-20T01:34:57;8.40;99.90
62916;DHT22;49010;51.230;-2.306;2022-11-20T01:38:39;8.40;99.90
62916;DHT22;49010;51.230;-2.306;2022-11-20T01:42:21;8.40;99.90
62916;DHT22;49010;51.230;-2.306;2022-11-20T01:46:21;8.40;99.90
62916;DHT22;49010;51.230;-2.306;2022-11-20T01:50:09;8.40;99.90
62916;DHT22;49010;51.230;-2.306;2022-11-20T01:53:55;8.50;99.90
62916;DHT22;49010;51.230;-2.306;2022-11-20T01:57:40;8.50;99.90
62916;DHT22;49010;51.230;-2.306;2022-11-20T02:01:22;8.50;99.90
62916;DHT22;49010;51.230;-2.306;2022-11-20T02:05:27;8.60;99.90
62916;DHT22;49010;51.230;-2.306;2022-11-20T02:09:10;8.60;99.90
62916;DHT22;49010;51.230;-2.306;2022-11-20T02:12:53;8.70;99.90
62916;DHT22;49010;51.230;-2.306;2022-11-20T02:16:54;8.70;99.90
62916;DHT22;49010;51.230;-2.306;2022-11-20T02:20:37;8.70;99.90
62916;DHT22;49010;51.230;-2.306;2022-11-20T02:24:21;8.70;99.90
62916;DHT22;49010;51.230;-2.306;2022-11-20T02:28:05;8.80;99.90
62916;DHT22;49010;51.230;-2.306;2022-11-20T02:31:47;8.80;99.90
62916;DHT22;49010;51.230;-2.306;2022-11-20T02:39:13;8.80;99.90
62916;DHT22;49010;51.230;-2.306;2022-11-20T02:42:56;8.90;99.90
62916;DHT22;49010;51.230;-2.306;2022-11-20T02:46:38;8.90;99.90
62916;DHT22;49010;51.230;-2.306;2022-11-20T02:50:20;8.90;99.90
62916;DHT22;49010;51.230;-2.306;2022-11-20T02:54:01;9.00;99.90
62916;DHT22;49010;51.230;-2.306;2022-11-20T02:57:43;9.00;99.90
62916;DHT22;49010;51.230;-2.306;2022-11-20T03:01:25;9.00;99.90
62916;DHT22;49010;51.230;-2.306;2022-11-20T03:05:07;9.00;99.90
62916;DHT22;49010;51.230;-2.306;2022-11-20T03:08:49;9.00;99.90
62916;DHT22;49010;51.230;-2.306;2022-11-20T03:12:31;9.10;99.90
62916;DHT22;49010;51.230;-2.306;2022-11-20T03:16:18;9.10;99.90
62916;DHT22;49010;51.230;-2.306;2022-11-20T03:20:00;9.10;99.90
62916;DHT22;49010;51.230;-2.306;2022-11-20T03:23:42;9.10;99.90
62916;DHT22;49010;51.230;-2.306;2022-11-20T03:27:24;9.20;99.90
62916;DHT22;49010;51.230;-2.306;2022-11-20T03:31:08;9.20;99.90
62916;DHT22;49010;51.230;-2.306;2022-11-20T03:34:50;9.20;99.90
62916;DHT22;49010;51.230;-2.306;2022-11-20T03:38:32;9.30;99.90
62916;DHT22;49010;51.230;-2.306;2022-11-20T03:42:14;9.30;99.90
62916;DHT22;49010;51.230;-2.306;2022-11-20T03:46:15;9.30;99.90
62916;DHT22;49010;51.230;-2.306;2022-11-20T03:49:56;9.30;99.90
62916;DHT22;49010;51.230;-2.306;2022-11-20T03:53:39;9.30;99.90
62916;DHT22;49010;51.230;-2.306;2022-11-20T03:57:21;9.30;99.90
62916;DHT22;49010;51.230;-2.306;2022-11-20T04:01:10;9.30;99.90
62916;DHT22;49010;51.230;-2.306;2022-11-20T04:04:52;9.30;99.90
62916;DHT22;49010;51.230;-2.306;2022-11-20T04:08:34;9.30;99.90
62916;DHT22;49010;51.230;-2.306;2022-11-20T04:12:16;9.30;99.90
62916;DHT22;49010;51.230;-2.306;2022-11-20T04:15:58;9.30;99.90
62916;DHT22;49010;51.230;-2.306;2022-11-20T04:19:39;9.30;99.90
62916;DHT22;49010;51.230;-2.306;2022-11-20T04:23:21;9.30;99.90
62916;DHT22;49010;51.230;-2.306;2022-11-20T04:27:09;9.30;99.90
62916;DHT22;49010;51.230;-2.306;2022-11-20T04:30:51;9.30;99.90
62916;DHT22;49010;51.230;-2.306;2022-11-20T04:34:32;9.30;99.90
62916;DHT22;49010;51.230;-2.306;2022-11-20T04:38:14;9.20;99.90
62916;DHT22;49010;51.230;-2.306;2022-11-20T04:41:56;9.10;99.90
62916;DHT22;49010;51.230;-2.306;2022-11-20T04:45:57;9.00;99.90
62916;DHT22;49010;51.230;-2.306;2022-11-20T04:49:39;8.90;99.90
62916;DHT22;49010;51.230;-2.306;2022-11-20T04:53:22;8.80;99.90
62916;DHT22;49010;51.230;-2.306;2022-11-20T04:57:04;8.90;99.90
62916;DHT22;49010;51.230;-2.306;2022-11-20T05:00:50;8.90;99.90
62916;DHT22;49010;51.230;-2.306;2022-11-20T05:04:33;8.90;99.90
62916;DHT22;49010;51.230;-2.306;2022-11-20T05:08:15;8.80;99.90
62916;DHT22;49010;51.230;-2.306;2022-11-20T05:11:56;8.80;99.90
62916;DHT22;49010;51.230;-2.306;2022-11-20T05:15:38;8.80;99.90
62916;DHT22;49010;51.230;-2.306;2022-11-20T05:19:20;8.80;99.90
62916;DHT22;49010;51.230;-2.306;2022-11-20T05:23:02;8.70;99.90
62916;DHT22;49010;51.230;-2.306;2022-11-20T05:26:44;8.70;99.90
62916;DHT22;49010;51.230;-2.306;2022-11-20T05:30:26;8.70;99.90
62916;DHT22;49010;51.230;-2.306;2022-11-20T05:34:07;8.60;99.90
62916;DHT22;49010;51.230;-2.306;2022-11-20T05:37:49;8.60;99.90
62916;DHT22;49010;51.230;-2.306;2022-11-20T05:41:32;8.50;99.90
62916;DHT22;49010;51.230;-2.306;2022-11-20T05:45:14;8.50;99.90
62916;DHT22;49010;51.230;-2.306;2022-11-20T05:48:56;8.50;99.90
62916;DHT22;49010;51.230;-2.306;2022-11-20T05:52:38;8.50;99.90
62916;DHT22;49010;51.230;-2.306;2022-11-20T05:56:21;8.40;99.90
62916;DHT22;49010;51.230;-2.306;2022-11-20T06:00:04;8.40;99.90
62916;DHT22;49010;51.230;-2.306;2022-11-20T06:03:46;8.40;99.90
62916;DHT22;49010;51.230;-2.306;2022-11-20T06:07:29;8.40;99.90
62916;DHT22;49010;51.230;-2.306;2022-11-20T06:11:12;8.30;99.90
62916;DHT22;49010;51.230;-2.306;2022-11-20T06:14:54;8.30;99.90
62916;DHT22;49010;51.230;-2.306;2022-11-20T06:18:36;8.30;99.90
62916;DHT22;49010;51.230;-2.306;2022-11-20T06:22:18;8.30;99.90
62916;DHT22;49010;51.230;-2.306;2022-11-20T06:26:05;8.30;99.90
62916;DHT22;49010;51.230;-2.306;2022-11-20T06:29:47;8.20;99.90
62916;DHT22;49010;51.230;-2.306;2022-11-20T06:33:29;8.20;99.90
62916;DHT22;49010;51.230;-2.306;2022-11-20T06:37:11;8.20;99.90
62916;DHT22;49010;51.230;-2.306;2022-11-20T06:40:53;8.20;99.90
62916;DHT22;49010;51.230;-2.306;2022-11-20T06:44:35;8.20;99.90
62916;DHT22;49010;51.230;-2.306;2022-11-20T06:48:17;8.10;99.90
62916;DHT22;49010;51.230;-2.306;2022-11-20T06:51:59;8.10;99.90
62916;DHT22;49010;51.230;-2.306;2022-11-20T06:55:44;8.00;99.90
62916;DHT22;49010;51.230;-2.306;2022-11-20T06:59:26;8.10;99.90
62916;DHT22;49010;51.230;-2.306;2022-11-20T07:03:10;8.00;99.90
62916;DHT22;49010;51.230;-2.306;2022-11-20T07:06:52;7.90;99.90
62916;DHT22;49010;51.230;-2.306;2022-11-20T07:10:34;7.90;99.90
62916;DHT22;49010;51.230;-2.306;2022-11-20T07:14:16;7.80;99.90
62916;DHT22;49010;51.230;-2.306;2022-11-20T07:18:00;7.80;99.90
62916;DHT22;49010;51.230;-2.306;2022-11-20T07:21:43;7.80;99.90
62916;DHT22;49010;51.230;-2.306;2022-11-20T07:25:28;7.70;99.90
62916;DHT22;49010;51.230;-2.306;2022-11-20T07:29:10;7.70;99.90
62916;DHT22;49010;51.230;-2.306;2022-11-20T07:32:52;7.70;99.90
62916;DHT22;49010;51.230;-2.306;2022-11-20T07:36:34;7.70;99.90
62916;DHT22;49010;51.230;-2.306;2022-11-20T07:40:17;7.70;99.90
62916;DHT22;49010;51.230;-2.306;2022-11-20T07:43:59;7.70;99.90
62916;DHT22;49010;51.230;-2.306;2022-11-20T07:47:41;7.70;99.90
62916;DHT22;49010;51.230;-2.306;2022-11-20T07:51:26;7.60;99.90
62916;DHT22;49010;51.230;-2.306;2022-11-20T07:55:09;7.70;99.90
62916;DHT22;49010;51.230;-2.306;2022-11-20T07:58:51;7.70;99.90
62916;DHT22;49010;51.230;-2.306;2022-11-20T08:02:33;7.80;99.90
62916;DHT22;49010;51.230;-2.306;2022-11-20T08:06:15;7.80;99.90
62916;DHT22;49010;51.230;-2.306;2022-11-20T08:09:56;7.90;99.90
62916;DHT22;49010;51.230;-2.306;2022-11-20T08:13:39;7.90;99.90
62916;DHT22;49010;51.230;-2.306;2022-11-20T08:17:39;8.00;99.90
62916;DHT22;49010;51.230;-2.306;2022-11-20T08:21:21;8.00;99.90
62916;DHT22;49010;51.230;-2.306;2022-11-20T08:25:03;8.10;99.90
62916;DHT22;49010;51.230;-2.306;2022-11-20T08:28:45;8.10;99.90
62916;DHT22;49010;51.230;-2.306;2022-11-20T08:32:27;8.10;99.90
62916;DHT22;49010;51.230;-2.306;2022-11-20T08:36:09;8.20;99.90
62916;DHT22;49010;51.230;-2.306;2022-11-20T08:39:50;8.30;99.90
62916;DHT22;49010;51.230;-2.306;2022-11-20T08:43:34;8.30;99.90
62916;DHT22;49010;51.230;-2.306;2022-11-20T08:47:15;8.40;99.90
62916;DHT22;49010;51.230;-2.306;2022-11-20T08:50:58;8.50;99.90
62916;DHT22;49010;51.230;-2.306;2022-11-20T08:54:41;8.50;99.90
62916;DHT22;49010;51.230;-2.306;2022-11-20T08:58:22;8.50;99.90
62916;DHT22;49010;51.230;-2.306;2022-11-20T09:02:04;8.50;99.90
62916;DHT22;49010;51.230;-2.306;2022-11-20T09:05:46;8.50;99.90
62916;DHT22;49010;51.230;-2.306;2022-11-20T09:09:28;8.40;99.90
62916;DHT22;49010;51.230;-2.306;2022-11-20T09:13:09;8.40;99.90
62916;DHT22;49010;51.230;-2.306;2022-11-20T09:16:51;8.40;99.90
62916;DHT22;49010;51.230;-2.306;2022-11-20T09:20:33;8.40;99.90
62916;DHT22;49010;51.230;-2.306;2022-11-20T09:24:15;8.40;99.90
62916;DHT22;49010;51.230;-2.306;2022-11-20T09:27:57;8.50;99.90
62916;DHT22;49010;51.230;-2.306;2022-11-20T09:31:39;8.60;99.90
62916;DHT22;49010;51.230;-2.306;2022-11-20T09:35:21;8.80;99.90
62916;DHT22;49010;51.230;-2.306;2022-11-20T09:39:03;9.50;99.90
62916;DHT22;49010;51.230;-2.306;2022-11-20T09:47:08;10.90;99.90
62916;DHT22;49010;51.230;-2.306;2022-11-20T09:50:57;11.00;99.90
62916;DHT22;49010;51.230;-2.306;2022-11-20T09:54:44;11.10;99.90
62916;DHT22;49010;51.230;-2.306;2022-11-20T09:58:31;11.40;99.90
62916;DHT22;49010;51.230;-2.306;2022-11-20T10:02:28;12.10;99.90
62916;DHT22;49010;51.230;-2.306;2022-11-20T10:06:16;12.80;99.90
62916;DHT22;49010;51.230;-2.306;2022-11-20T10:09:59;13.70;99.90
62916;DHT22;49010;51.230;-2.306;2022-11-20T10:22:14;15.20;99.90
62916;DHT22;49010;51.230;-2.306;2022-11-20T10:26:35;15.90;99.90
62916;DHT22;49010;51.230;-2.306;2022-11-20T10:30:20;16.40;99.90
62916;DHT22;49010;51.230;-2.306;2022-11-20T10:34:20;16.60;99.90
62916;DHT22;49010;51.230;-2.306;2022-11-20T10:38:10;16.70;99.90
62916;DHT22;49010;51.230;-2.306;2022-11-20T10:41:54;16.40;99.90
62916;DHT22;49010;51.230;-2.306;2022-11-20T10:45:45;16.30;99.90
62916;DHT22;49010;51.230;-2.306;2022-11-20T10:49:30;16.70;99.90
62916;DHT22;49010;51.230;-2.306;2022-11-20T10:53:54;16.90;99.90
62916;DHT22;49010;51.230;-2.306;2022-11-20T11:01:41;16.30;99.90
62916;DHT22;49010;51.230;-2.306;2022-11-20T11:05:38;16.10;99.90
62916;DHT22;49010;51.230;-2.306;2022-11-20T11:09:31;15.80;99.90
62916;DHT22;49010;51.230;-2.306;2022-11-20T11:13:29;15.30;99.90
62916;DHT22;49010;51.230;-2.306;2022-11-20T11:17:46;15.00;99.90
62916;DHT22;49010;51.230;-2.306;2022-11-20T11:21:28;14.70;99.90
62916;DHT22;49010;51.230;-2.306;2022-11-20T11:25:26;14.40;99.90
62916;DHT22;49010;51.230;-2.306;2022-11-20T11:29:17;14.30;99.90
62916;DHT22;49010;51.230;-2.306;2022-11-20T11:33:08;14.10;99.90
62916;DHT22;49010;51.230;-2.306;2022-11-20T11:36:56;13.90;99.90
62916;DHT22;49010;51.230;-2.306;2022-11-20T11:40:40;13.80;99.90
62916;DHT22;49010;51.230;-2.306;2022-11-20T11:44:32;13.50;99.90
62916;DHT22;49010;51.230;-2.306;2022-11-20T11:48:33;13.40;99.90
62916;DHT22;49010;51.230;-2.306;2022-11-20T11:52:21;13.30;99.90
62916;DHT22;49010;51.230;-2.306;2022-11-20T11:56:11;13.30;99.90
62916;DHT22;49010;51.230;-2.306;2022-11-20T11:59:57;13.10;99.90
62916;DHT22;49010;51.230;-2.306;2022-11-20T12:03:42;13.20;99.90
62916;DHT22;49010;51.230;-2.306;2022-11-20T12:07:46;13.20;99.90
62916;DHT22;49010;51.230;-2.306;2022-11-20T12:15:34;13.20;99.90
62916;DHT22;49010;51.230;-2.306;2022-11-20T12:19:15;13.20;99.90
62916;DHT22;49010;51.230;-2.306;2022-11-20T12:23:21;13.10;99.90
62916;DHT22;49010;51.230;-2.306;2022-11-20T12:31:35;12.80;99.90
62916;DHT22;49010;51.230;-2.306;2022-11-20T12:35:44;12.60;99.90
62916;DHT22;49010;51.230;-2.306;2022-11-20T12:39:51;12.60;99.90
62916;DHT22;49010;51.230;-2.306;2022-11-20T12:43:43;12.50;99.90
62916;DHT22;49010;51.230;-2.306;2022-11-20T12:51:47;12.60;99.90
62916;DHT22;49010;51.230;-2.306;2022-11-20T12:55:41;12.90;99.90
62916;DHT22;49010;51.230;-2.306;2022-11-20T13:07:19;13.50;99.90
62916;DHT22;49010;51.230;-2.306;2022-11-20T13:19:02;13.30;99.90
62916;DHT22;49010;51.230;-2.306;2022-11-20T13:22:49;13.40;99.90
62916;DHT22;49010;51.230;-2.306;2022-11-20T13:26:31;13.20;99.90
62916;DHT22;49010;51.230;-2.306;2022-11-20T13:30:19;13.30;99.90
62916;DHT22;49010;51.230;-2.306;2022-11-20T13:34:04;13.30;99.90
62916;DHT22;49010;51.230;-2.306;2022-11-20T13:37:59;13.20;99.90
62916;DHT22;49010;51.230;-2.306;2022-11-20T13:41:41;13.10;99.90
62916;DHT22;49010;51.230;-2.306;2022-11-20T13:45:27;13.00;99.90
62916;DHT22;49010;51.230;-2.306;2022-11-20T14:01:30;12.30;99.90
62916;DHT22;49010;51.230;-2.306;2022-11-20T14:05:20;12.10;99.90
62916;DHT22;49010;51.230;-2.306;2022-11-20T14:09:03;12.00;99.90
62916;DHT22;49010;51.230;-2.306;2022-11-20T14:12:44;12.00;99.90
62916;DHT22;49010;51.230;-2.306;2022-11-20T14:16:29;12.00;99.90
62916;DHT22;49010;51.230;-2.306;2022-11-20T14:20:14;12.00;99.90
62916;DHT22;49010;51.230;-2.306;2022-11-20T14:24:09;11.90;99.90
62916;DHT22;49010;51.230;-2.306;2022-11-20T14:27:53;11.90;99.90
62916;DHT22;49010;51.230;-2.306;2022-11-20T14:31:36;11.90;99.90
62916;DHT22;49010;51.230;-2.306;2022-11-20T14:35:29;11.90;99.90
62916;DHT22;49010;51.230;-2.306;2022-11-20T14:39:20;11.80;99.90
62916;DHT22;49010;51.230;-2.306;2022-11-20T14:47:06;11.50;99.90
62916;DHT22;49010;51.230;-2.306;2022-11-20T14:50:48;11.40;99.90
62916;DHT22;49010;51.230;-2.306;2022-11-20T14:54:31;11.30;99.90
62916;DHT22;49010;51.230;-2.306;2022-11-20T14:58:24;11.20;99.90
62916;DHT22;49010;51.230;-2.306;2022-11-20T15:02:09;11.10;99.90
62916;DHT22;49010;51.230;-2.306;2022-11-20T15:05:51;11.00;99.90
62916;DHT22;49010;51.230;-2.306;2022-11-20T15:09:33;10.90;99.90
62916;DHT22;49010;51.230;-2.306;2022-11-20T15:17:10;10.90;99.90
62916;DHT22;49010;51.230;-2.306;2022-11-20T15:20:55;10.80;99.90
62916;DHT22;49010;51.230;-2.306;2022-11-20T15:24:37;10.80;99.90
62916;DHT22;49010;51.230;-2.306;2022-11-20T15:32:04;10.70;99.90
62916;DHT22;49010;51.230;-2.306;2022-11-20T15:35:53;10.60;99.90
62916;DHT22;49010;51.230;-2.306;2022-11-20T15:39:35;10.60;99.90
62916;DHT22;49010;51.230;-2.306;2022-11-20T15:43:17;10.50;99.90
62916;DHT22;49010;51.230;-2.306;2022-11-20T15:46:59;10.40;99.90
62916;DHT22;49010;51.230;-2.306;2022-11-20T15:54:31;10.30;99.90
62916;DHT22;49010;51.230;-2.306;2022-11-20T15:58:13;10.30;99.90
62916;DHT22;49010;51.230;-2.306;2022-11-20T16:01:54;10.20;99.90
62916;DHT22;49010;51.230;-2.306;2022-11-20T16:05:36;10.20;99.90
62916;DHT22;49010;51.230;-2.306;2022-11-20T16:09:18;10.10;99.90
62916;DHT22;49010;51.230;-2.306;2022-11-20T16:13:00;10.00;99.90
62916;DHT22;49010;51.230;-2.306;2022-11-20T16:17:00;10.00;99.90
62916;DHT22;49010;51.230;-2.306;2022-11-20T16:20:44;9.90;99.90
62916;DHT22;49010;51.230;-2.306;2022-11-20T16:24:26;9.90;99.90
62916;DHT22;49010;51.230;-2.306;2022-11-20T16:28:08;9.80;99.90
62916;DHT22;49010;51.230;-2.306;2022-11-20T16:31:56;9.80;99.90
62916;DHT22;49010;51.230;-2.306;2022-11-20T16:35:38;9.70;99.90
62916;DHT22;49010;51.230;-2.306;2022-11-20T16:39:20;9.70;99.90
62916;DHT22;49010;51.230;-2.306;2022-11-20T16:43:10;9.60;99.90
62916;DHT22;49010;51.230;-2.306;2022-11-20T16:46:52;9.60;99.90
62916;DHT22;49010;51.230;-2.306;2022-11-20T16:50:33;9.50;99.90
62916;DHT22;49010;51.230;-2.306;2022-11-20T16:54:15;9.40;99.90
62916;DHT22;49010;51.230;-2.306;2022-11-20T16:58:01;9.40;99.90
62916;DHT22;49010;51.230;-2.306;2022-11-20T17:01:43;9.30;99.90
62916;DHT22;49010;51.230;-2.306;2022-11-20T17:05:28;9.30;99.90
62916;DHT22;49010;51.230;-2.306;2022-11-20T17:09:10;9.20;99.90
62916;DHT22;49010;51.230;-2.306;2022-11-20T17:12:53;9.10;99.90
62916;DHT22;49010;51.230;-2.306;2022-11-20T17:16:35;9.10;99.90
62916;DHT22;49010;51.230;-2.306;2022-11-20T17:20:17;8.90;99.90
62916;DHT22;49010;51.230;-2.306;2022-11-20T17:24:00;8.90;99.90
62916;DHT22;49010;51.230;-2.306;2022-11-20T17:27:43;8.80;99.90
62916;DHT22;49010;51.230;-2.306;2022-11-20T17:31:26;8.70;99.90
62916;DHT22;49010;51.230;-2.306;2022-11-20T17:35:08;8.70;99.90
62916;DHT22;49010;51.230;-2.306;2022-11-20T17:38:50;8.60;99.90
62916;DHT22;49010;51.230;-2.306;2022-11-20T17:42:32;8.50;99.90
62916;DHT22;49010;51.230;-2.306;2022-11-20T17:46:19;8.40;99.90
62916;DHT22;49010;51.230;-2.306;2022-11-20T17:50:02;8.40;99.90
62916;DHT22;49010;51.230;-2.306;2022-11-20T17:53:46;8.30;99.90
62916;DHT22;49010;51.230;-2.306;2022-11-20T17:57:28;8.20;99.90
62916;DHT22;49010;51.230;-2.306;2022-11-20T18:01:28;8.20;99.90
62916;DHT22;49010;51.230;-2.306;2022-11-20T18:05:10;8.10;99.90
62916;DHT22;49010;51.230;-2.306;2022-11-20T18:08:53;8.10;99.90
62916;DHT22;49010;51.230;-2.306;2022-11-20T18:12:35;8.00;99.90
62916;DHT22;49010;51.230;-2.306;2022-11-20T18:16:16;8.00;99.90
62916;DHT22;49010;51.230;-2.306;2022-11-20T18:19:58;7.90;99.90
62916;DHT22;49010;51.230;-2.306;2022-11-20T18:24:00;7.90;99.90
62916;DHT22;49010;51.230;-2.306;2022-11-20T18:27:42;7.80;99.90
62916;DHT22;49010;51.230;-2.306;2022-11-20T18:31:23;7.70;99.90
62916;DHT22;49010;51.230;-2.306;2022-11-20T18:35:06;7.70;99.90
62916;DHT22;49010;51.230;-2.306;2022-11-20T18:38:50;7.60;99.90
62916;DHT22;49010;51.230;-2.306;2022-11-20T18:42:32;7.60;99.90
62916;DHT22;49010;51.230;-2.306;2022-11-20T18:46:34;7.50;99.90
62916;DHT22;49010;51.230;-2.306;2022-11-20T18:50:16;7.50;99.90
62916;DHT22;49010;51.230;-2.306;2022-11-20T18:53:57;7.40;99.90
62916;DHT22;49010;51.230;-2.306;2022-11-20T18:57:39;7.40;99.90
62916;DHT22;49010;51.230;-2.306;2022-11-20T19:01:21;7.30;99.90
62916;DHT22;49010;51.230;-2.306;2022-11-20T19:05:03;7.30;99.90
62916;DHT22;49010;51.230;-2.306;2022-11-20T19:08:45;7.30;99.90
62916;DHT22;49010;51.230;-2.306;2022-11-20T19:12:27;7.20;99.90
62916;DHT22;49010;51.230;-2.306;2022-11-20T19:16:13;7.10;99.90
62916;DHT22;49010;51.230;-2.306;2022-11-20T19:19:55;7.00;99.90
62916;DHT22;49010;51.230;-2.306;2022-11-20T19:23:37;6.90;99.90
62916;DHT22;49010;51.230;-2.306;2022-11-20T19:27:18;6.90;99.90
62916;DHT22;49010;51.230;-2.306;2022-11-20T19:31:09;6.80;99.90
62916;DHT22;49010;51.230;-2.306;2022-11-20T19:34:51;6.80;99.90
62916;DHT22;49010;51.230;-2.306;2022-11-20T19:38:32;6.70;99.90
62916;DHT22;49010;51.230;-2.306;2022-11-20T19:42:14;6.70;99.90
62916;DHT22;49010;51.230;-2.306;2022-11-20T19:45:56;6.60;99.90
62916;DHT22;49010;51.230;-2.306;2022-11-20T19:49:38;6.60;99.90
62916;DHT22;49010;51.230;-2.306;2022-11-20T19:53:22;6.50;99.90
62916;DHT22;49010;51.230;-2.306;2022-11-20T19:57:04;6.40;99.90
62916;DHT22;49010;51.230;-2.306;2022-11-20T20:00:45;6.40;99.90
62916;DHT22;49010;51.230;-2.306;2022-11-20T20:04:27;6.30;99.90
62916;DHT22;49010;51.230;-2.306;2022-11-20T20:08:09;6.30;99.90
62916;DHT22;49010;51.230;-2.306;2022-11-20T20:11:55;6.20;99.90
62916;DHT22;49010;51.230;-2.306;2022-11-20T20:15:40;6.20;99.90
62916;DHT22;49010;51.230;-2.306;2022-11-20T20:19:22;6.20;99.90
62916;DHT22;49010;51.230;-2.306;2022-11-20T20:23:04;6.20;99.90
62916;DHT22;49010;51.230;-2.306;2022-11-20T20:26:47;6.20;99.90
62916;DHT22;49010;51.230;-2.306;2022-11-20T20:30:29;6.20;99.90
62916;DHT22;49010;51.230;-2.306;2022-11-20T20:34:11;6.20;99.90
62916;DHT22;49010;51.230;-2.306;2022-11-20T20:37:53;6.10;99.90
62916;DHT22;49010;51.230;-2.306;2022-11-20T20:41:34;6.10;99.90
62916;DHT22;49010;51.230;-2.306;2022-11-20T20:45:16;6.10;99.90
62916;DHT22;49010;51.230;-2.306;2022-11-20T20:48:58;6.10;99.90
62916;DHT22;49010;51.230;-2.306;2022-11-20T20:52:40;6.10;99.90
62916;DHT22;49010;51.230;-2.306;2022-11-20T20:56:22;6.00;99.90
62916;DHT22;49010;51.230;-2.306;2022-11-20T21:00:05;6.00;99.90
62916;DHT22;49010;51.230;-2.306;2022-11-20T21:03:47;6.00;99.90
62916;DHT22;49010;51.230;-2.306;2022-11-20T21:07:29;6.00;99.90
62916;DHT22;49010;51.230;-2.306;2022-11-20T21:11:15;6.00;99.90
62916;DHT22;49010;51.230;-2.306;2022-11-20T21:14:57;5.90;99.90
62916;DHT22;49010;51.230;-2.306;2022-11-20T21:18:39;5.90;99.90
62916;DHT22;49010;51.230;-2.306;2022-11-20T21:22:21;5.90;99.90
62916;DHT22;49010;51.230;-2.306;2022-11-20T21:26:04;5.90;99.90
62916;DHT22;49010;51.230;-2.306;2022-11-20T21:29:47;5.80;99.90
62916;DHT22;49010;51.230;-2.306;2022-11-20T21:33:35;5.80;99.90
62916;DHT22;49010;51.230;-2.306;2022-11-20T21:37:17;5.80;99.90
62916;DHT22;49010;51.230;-2.306;2022-11-20T21:40:59;5.80;99.90
62916;DHT22;49010;51.230;-2.306;2022-11-20T21:44:41;5.80;99.90
62916;DHT22;49010;51.230;-2.306;2022-11-20T21:48:27;5.80;99.90
62916;DHT22;49010;51.230;-2.306;2022-11-20T21:52:09;5.70;99.90
62916;DHT22;49010;51.230;-2.306;2022-11-20T21:55:54;5.70;99.90
62916;DHT22;49010;51.230;-2.306;2022-11-20T21:59:36;5.70;99.90
62916;DHT22;49010;51.230;-2.306;2022-11-20T22:03:18;5.60;99.90
62916;DHT22;49010;51.230;-2.306;2022-11-20T22:07:00;5.60;99.90
62916;DHT22;49010;51.230;-2.306;2022-11-20T22:10:41;5.60;99.90
62916;DHT22;49010;51.230;-2.306;2022-11-20T22:14:23;5.60;99.90
62916;DHT22;49010;51.230;-2.306;2022-11-20T22:18:06;5.60;99.90
62916;DHT22;49010;51.230;-2.306;2022-11-20T22:21:53;5.60;99.90
62916;DHT22;49010;51.230;-2.306;2022-11-20T22:25:35;5.60;99.90
62916;DHT22;49010;51.230;-2.306;2022-11-20T22:29:18;5.60;99.90
62916;DHT22;49010;51.230;-2.306;2022-11-20T22:33:03;5.60;99.90
62916;DHT22;49010;51.230;-2.306;2022-11-20T22:36:52;5.60;99.90
62916;DHT22;49010;51.230;-2.306;2022-11-20T22:40:34;5.70;99.90
62916;DHT22;49010;51.230;-2.306;2022-11-20T22:44:16;5.60;99.90
62916;DHT22;49010;51.230;-2.306;2022-11-20T22:47:57;5.60;99.90
62916;DHT22;49010;51.230;-2.306;2022-11-20T22:51:40;5.60;99.90
62916;DHT22;49010;51.230;-2.306;2022-11-20T22:55:22;5.60;99.90
62916;DHT22;49010;51.230;-2.306;2022-11-20T22:59:03;5.60;99.90
62916;DHT22;49010;51.230;-2.306;2022-11-20T23:02:45;5.60;99.90
62916;DHT22;49010;51.230;-2.306;2022-11-20T23:06:28;5.50;99.90
62916;DHT22;49010;51.230;-2.306;2022-11-20T23:10:10;5.40;99.90
62916;DHT22;49010;51.230;-2.306;2022-11-20T23:14:14;5.40;99.90
62916;DHT22;49010;51.230;-2.306;2022-11-20T23:17:55;5.40;99.90
62916;DHT22;49010;51.230;-2.306;2022-11-20T23:21:38;5.30;99.90
62916;DHT22;49010;51.230;-2.306;2022-11-20T23:25:21;5.30;99.90
62916;DHT22;49010;51.230;-2.306;2022-11-20T23:29:03;5.30;99.90
62916;DHT22;49010;51.230;-2.306;2022-11-20T23:32:46;5.30;99.90
62916;DHT22;49010;51.230;-2.306;2022-11-20T23:36:27;5.30;99.90
62916;DHT22;49010;51.230;-2.306;2022-11-20T23:40:09;5.20;99.90
62916;DHT22;49010;51.230;-2.306;2022-11-20T23:43:52;5.20;99.90
62916;DHT22;49010;51.230;-2.306;2022-11-20T23:47:34;5.20;99.90
62916;DHT22;49010;51.230;-2.306;2022-11-20T23:51:16;5.20;99.90
62916;DHT22;49010;51.230;-2.306;2022-11-20T23:54:58;5.10;99.90
62916;DHT22;49010;51.230;-2.306;2022-11-20T23:58:40;5.10;99.90
